| time (UTC) | temp C | wind direction | speed KPH | gust KPH | rain 1hr cm | rain 24hr cm | rain mn cm | humidity % | barometer mb |
| 20260901140036 | 10 | 90 | 3.2 | 11.3 | 0.00 | 0.00 | 0.00 | 92 | 1013.0 |
| 20260901134516 | 10 | 90 | 4.8 | 16.1 | 0.00 | 0.00 | 0.00 | 92 | 1013.0 |
| 20260901133016 | 10 | 90 | 6.4 | 16.1 | 0.00 | 0.00 | 0.00 | 92 | 1012.9 |
| 20260901131516 | 10 | 90 | 4.8 | 20.9 | 0.00 | 0.00 | 0.00 | 92 | 1013.1 |
| 20260901130016 | 10 | 90 | 4.8 | 11.3 | 0.00 | 0.00 | 0.00 | 92 | 1013.1 |
| 20260901124516 | 10 | 113 | 3.2 | 14.5 | 0.00 | 0.00 | 0.00 | 92 | 1013.2 |
| 20260901123015 | 10 | 113 | 3.2 | 14.5 | 0.00 | 0.00 | 0.00 | 91 | 1013.2 |
| 20260901121556 | 10 | 113 | 3.2 | 6.4 | 0.00 | 0.00 | 0.00 | 91 | 1012.8 |
| 20260901120016 | 10 | 158 | 1.6 | 8.0 | 0.00 | 0.00 | 0.00 | 90 | 1012.6 |
| 20260901114536 | 10 | 158 | 3.2 | 8.0 | 0.00 | 0.00 | 0.00 | 89 | 1012.6 |
| 20260901113016 | 10 | 180 | 1.6 | 8.0 | 0.00 | 0.00 | 0.00 | 88 | 1012.3 |
| 20260901111515 | 11 | 0.0 | 3.2 | 0.00 | 0.00 | 0.00 | 87 | 1012.2 | |
| 20260901110016 | 11 | 0.0 | 4.8 | 0.00 | 0.00 | 0.00 | 86 | 1012.1 | |
| 20260901104535 | 11 | 90 | 1.6 | 4.8 | 0.00 | 0.00 | 0.00 | 86 | 1012.3 |
| 20260901103035 | 12 | 68 | 4.8 | 11.3 | 0.00 | 0.00 | 0.00 | 86 | 1011.8 |
| 20260901101516 | 11 | 90 | 4.8 | 6.4 | 0.00 | 0.00 | 0.00 | 86 | 1012.0 |
| 20260901100036 | 11 | 90 | 3.2 | 8.0 | 0.00 | 0.00 | 0.00 | 85 | 1012.2 |
| 20260901094516 | 12 | 0.0 | 3.2 | 0.00 | 0.00 | 0.00 | 85 | 1012.3 | |
| 20260901093015 | 12 | 113 | 1.6 | 3.2 | 0.00 | 0.00 | 0.00 | 84 | 1012.4 |
| 20260901091516 | 12 | 113 | 1.6 | 4.8 | 0.00 | 0.00 | 0.00 | 84 | 1012.5 |
| 20260901090016 | 12 | 113 | 1.6 | 4.8 | 0.00 | 0.00 | 0.00 | 83 | 1012.4 |
| 20260901084515 | 12 | 90 | 1.6 | 4.8 | 0.00 | 0.00 | 0.00 | 82 | 1012.6 |
| 20260901083016 | 12 | 113 | 3.2 | 6.4 | 0.00 | 0.00 | 0.00 | 81 | 1012.6 |
| 20260901081515 | 12 | 113 | 3.2 | 6.4 | 0.00 | 0.00 | 0.00 | 81 | 1012.7 |
| 20260901080016 | 12 | 113 | 3.2 | 8.0 | 0.00 | 0.00 | 0.00 | 80 | 1012.7 |
| 20260901074516 | 13 | 135 | 3.2 | 9.7 | 0.00 | 0.00 | 0.00 | 79 | 1012.9 |
| 20260901073016 | 13 | 135 | 1.6 | 9.7 | 0.00 | 0.00 | 0.00 | 79 | 1012.9 |
| 20260901071536 | 13 | 135 | 1.6 | 11.3 | 0.00 | 0.00 | 0.00 | 79 | 1012.8 |
| 20260901070015 | 13 | 113 | 3.2 | 8.0 | 0.00 | 0.00 | 0.00 | 79 | 1012.7 |
| 20260901064517 | 14 | 113 | 3.2 | 6.4 | 0.00 | 0.00 | 0.00 | 78 | 1012.8 |
| 20260901063016 | 14 | 113 | 1.6 | 8.0 | 0.00 | 0.00 | 0.00 | 77 | 1012.8 |
| 20260901061517 | 15 | 113 | 1.6 | 6.4 | 0.00 | 0.00 | 0.00 | 75 | 1012.7 |
| 20260901060016 | 15 | 113 | 1.6 | 4.8 | 0.00 | 0.00 | 0.00 | 74 | 1012.7 |
| 20260901054517 | 15 | 113 | 3.2 | 4.8 | 0.00 | 0.00 | 0.00 | 73 | 1012.7 |
| 20260901053036 | 15 | 113 | 1.6 | 4.8 | 0.00 | 0.00 | 0.00 | 72 | 1012.6 |
| 20260901051517 | 16 | 113 | 1.6 | 4.8 | 0.00 | 0.00 | 0.00 | 71 | 1012.4 |
| 20260901050036 | 16 | 113 | 1.6 | 4.8 | 0.00 | 0.00 | 0.00 | 71 | 1012.5 |
| 20260901044536 | 16 | 113 | 1.6 | 6.4 | 0.00 | 0.00 | 0.00 | 70 | 1012.2 |
| 20260901043036 | 16 | 113 | 1.6 | 4.8 | 0.00 | 0.00 | 0.00 | 70 | 1012.3 |
| 20260901041517 | 16 | 0.0 | 4.8 | 0.00 | 0.00 | 0.00 | 68 | 1012.0 | |
| 20260901040036 | 17 | 0.0 | 3.2 | 0.00 | 0.00 | 0.00 | 67 | 1012.0 | |
| 20260901034517 | 17 | 0.0 | 3.2 | 0.00 | 0.00 | 0.00 | 66 | 1011.7 | |
| 20260901033016 | 18 | 0.0 | 0.0 | 0.00 | 0.00 | 0.00 | 63 | 1011.7 | |
| 20260901031516 | 18 | 0.0 | 0.0 | 0.00 | 0.00 | 0.00 | 61 | 1011.5 | |
| 20260901030016 | 19 | 0.0 | 1.6 | 0.00 | 0.00 | 0.00 | 59 | 1011.4 | |
| 20260901024516 | 20 | 0.0 | 1.6 | 0.00 | 0.00 | 0.00 | 55 | 1011.2 | |
| 20260901023017 | 21 | 0.0 | 3.2 | 0.00 | 0.00 | 0.00 | 52 | 1011.2 | |
| 20260901021516 | 21 | 0.0 | 3.2 | 0.00 | 0.00 | 0.00 | 49 | 1011.2 | |
| 20260901020016 | 22 | 0.0 | 1.6 | 0.00 | 0.00 | 0.00 | 46 | 1011.1 | |
| 20260901014516 | 22 | 0.0 | 3.2 | 0.00 | 0.00 | 0.00 | 43 | 1011.1 | |
| 20260901013016 | 23 | 0.0 | 3.2 | 0.00 | 0.00 | 0.00 | 41 | 1011.4 | |
| 20260901011516 | 23 | 0.0 | 4.8 | 0.00 | 0.00 | 0.00 | 39 | 1011.4 | |
| 20260901010036 | 23 | 180 | 1.6 | 8.0 | 0.00 | 0.00 | 0.00 | 36 | 1011.3 |
| 20260901004516 | 23 | 158 | 1.6 | 6.4 | 0.00 | 0.00 | 0.00 | 38 | 1011.5 |
| 20260901003016 | 23 | 158 | 1.6 | 8.0 | 0.00 | 0.00 | 0.00 | 39 | 1011.7 |
| 20260901001516 | 24 | 0.0 | 4.8 | 0.00 | 0.00 | 0.00 | 40 | 1011.8 | |
| 20260901000016 | 24 | 135 | 1.6 | 4.8 | 0.00 | 0.00 | 0.00 | 39 | 1011.7 |
| 20260831234516 | 24 | 113 | 1.6 | 6.4 | 0.00 | 0.00 | 0.00 | 38 | 1012.0 |
| 20260831233016 | 25 | 113 | 1.6 | 6.4 | 0.00 | 0.00 | 0.00 | 37 | 1012.1 |
| 20260831231536 | 25 | 180 | 1.6 | 11.3 | 0.00 | 0.00 | 0.00 | 37 | 1012.1 |
| 20260831230016 | 25 | 113 | 1.6 | 8.0 | 0.00 | 0.00 | 0.00 | 37 | 1012.1 |
| 20260831224516 | 25 | 113 | 1.6 | 9.7 | 0.00 | 0.00 | 0.00 | 36 | 1012.2 |
| 20260831223016 | 26 | 180 | 1.6 | 6.4 | 0.00 | 0.00 | 0.00 | 34 | 1012.4 |
| 20260831221516 | 26 | 180 | 1.6 | 6.4 | 0.00 | 0.00 | 0.00 | 35 | 1012.3 |
| 20260831220016 | 26 | 113 | 3.2 | 14.5 | 0.00 | 0.00 | 0.00 | 35 | 1012.3 |
| 20260831214516 | 26 | 135 | 3.2 | 8.0 | 0.00 | 0.00 | 0.00 | 33 | 1012.4 |
| 20260831213016 | 26 | 203 | 1.6 | 9.7 | 0.00 | 0.00 | 0.00 | 35 | 1012.7 |
| 20260831211516 | 26 | 203 | 1.6 | 6.4 | 0.00 | 0.00 | 0.00 | 37 | 1012.9 |
| 20260831210016 | 26 | 135 | 1.6 | 9.7 | 0.00 | 0.00 | 0.00 | 37 | 1012.9 |
| 20260831204516 | 26 | 180 | 1.6 | 8.0 | 0.00 | 0.00 | 0.00 | 35 | 1012.9 |
| 20260831203016 | 26 | 225 | 1.6 | 8.0 | 0.00 | 0.00 | 0.00 | 38 | 1013.0 |
| 20260831201536 | 27 | 203 | 1.6 | 8.0 | 0.00 | 0.00 | 0.00 | 37 | 1013.2 |
| 20260831200016 | 27 | 270 | 1.6 | 6.4 | 0.00 | 0.00 | 0.00 | 40 | 1013.0 |
| 20260831194516 | 26 | 270 | 1.6 | 4.8 | 0.00 | 0.00 | 0.00 | 40 | 1013.2 |
| 20260831193016 | 26 | 270 | 1.6 | 6.4 | 0.00 | 0.00 | 0.00 | 40 | 1013.3 |
| 20260831191516 | 27 | 0.0 | 4.8 | 0.00 | 0.00 | 0.00 | 39 | 1013.3 | |
| 20260831190016 | 27 | 0.0 | 4.8 | 0.00 | 0.00 | 0.00 | 36 | 1013.3 | |
| 20260831184516 | 28 | 203 | 1.6 | 6.4 | 0.00 | 0.00 | 0.00 | 34 | 1013.4 |
| 20260831183016 | 27 | 158 | 1.6 | 8.0 | 0.00 | 0.00 | 0.00 | 36 | 1013.2 |
| 20260831181516 | 27 | 203 | 1.6 | 8.0 | 0.00 | 0.00 | 0.00 | 35 | 1013.1 |
| 20260831180016 | 27 | 113 | 1.6 | 8.0 | 0.00 | 0.00 | 0.00 | 35 | 1013.2 |
| 20260831174516 | 26 | 113 | 3.2 | 8.0 | 0.00 | 0.00 | 0.00 | 37 | 1013.4 |
| 20260831173016 | 26 | 135 | 1.6 | 6.4 | 0.00 | 0.00 | 0.00 | 37 | 1013.3 |
| 20260831171536 | 26 | 113 | 1.6 | 8.0 | 0.00 | 0.00 | 0.00 | 38 | 1013.6 |
| 20260831170016 | 25 | 113 | 1.6 | 6.4 | 0.00 | 0.00 | 0.00 | 38 | 1013.3 |
| 20260831164536 | 25 | 90 | 1.6 | 6.4 | 0.00 | 0.00 | 0.00 | 39 | 1013.3 |
| 20260831163015 | 24 | 45 | 1.6 | 6.4 | 0.00 | 0.00 | 0.00 | 39 | 1013.1 |
| 20260831161536 | 23 | 68 | 1.6 | 6.4 | 0.00 | 0.00 | 0.00 | 42 | 1012.9 |
| 20260831160016 | 22 | 68 | 1.6 | 6.4 | 0.00 | 0.00 | 0.00 | 44 | 1012.8 |
| 20260831154515 | 21 | 45 | 1.6 | 4.8 | 0.00 | 0.00 | 0.00 | 45 | 1012.7 |
| 20260831153015 | 21 | 68 | 1.6 | 6.4 | 0.00 | 0.00 | 0.00 | 44 | 1012.6 |
| 20260831151515 | 21 | 68 | 1.6 | 3.2 | 0.00 | 0.00 | 0.00 | 46 | 1012.8 |
| 20260831150015 | 21 | 0.0 | 1.6 | 0.00 | 0.00 | 0.00 | 47 | 1012.7 | |
| 20260831144516 | 20 | 0.0 | 0.0 | 0.00 | 0.00 | 0.00 | 48 | 1012.6 | |
| 20260831143015 | 19 | 0.0 | 3.2 | 0.00 | 0.00 | 0.00 | 49 | 1012.4 | |
| 20260831141515 | 19 | 0.0 | 1.6 | 0.00 | 0.00 | 0.00 | 47 | 1012.3 |